createdAt,value
2023-07-25T00:03:43.085Z,5.20
2023-07-25T00:08:46.439Z,5.80
2023-07-25T00:13:50.451Z,5.20
2023-07-25T00:18:54.980Z,6.20
2023-07-25T00:23:58.274Z,6.10
2023-07-25T00:29:01.984Z,7.20
2023-07-25T00:34:07.932Z,5.50
2023-07-25T00:39:12.557Z,6.60
2023-07-25T00:44:15.984Z,6.50
2023-07-25T00:49:19.337Z,6.00
2023-07-25T00:54:22.821Z,7.10
2023-07-25T00:59:26.066Z,5.60
2023-07-25T01:04:29.466Z,5.60
2023-07-25T01:09:46.891Z,7.00
2023-07-25T01:14:50.490Z,8.10
2023-07-25T01:19:55.716Z,6.00
2023-07-25T01:24:59.101Z,7.10
2023-07-25T01:30:02.427Z,7.80
2023-07-25T01:35:06.546Z,6.80
2023-07-25T01:40:19.733Z,6.30
2023-07-25T01:45:27.777Z,7.70
2023-07-25T01:50:31.849Z,7.60
2023-07-25T01:55:37.777Z,7.10
2023-07-25T02:00:41.001Z,5.40
2023-07-25T02:05:44.280Z,6.40
2023-07-25T02:10:47.565Z,6.20
2023-07-25T02:15:50.964Z,5.10
2023-07-25T02:20:54.274Z,5.70
2023-07-25T02:25:57.536Z,5.60
2023-07-25T02:31:00.869Z,8.10
2023-07-25T02:36:04.263Z,9.80
2023-07-25T02:41:07.574Z,11.40
2023-07-25T02:46:10.860Z,10.50
2023-07-25T02:51:14.181Z,12.20
2023-07-25T02:56:17.476Z,9.00
2023-07-25T03:01:20.764Z,7.40
2023-07-25T03:06:24.117Z,7.90
2023-07-25T03:11:27.399Z,8.70
2023-07-25T03:16:31.895Z,9.30
2023-07-25T03:21:35.281Z,8.90
2023-07-25T03:26:38.537Z,5.40
2023-07-25T03:31:41.847Z,8.00
2023-07-25T03:36:45.682Z,7.80
2023-07-25T03:41:49.027Z,7.60
2023-07-25T03:46:52.314Z,9.30
2023-07-25T03:51:55.670Z,9.70
2023-07-25T03:56:58.918Z,14.30
2023-07-25T04:02:02.399Z,8.80
2023-07-25T04:07:05.978Z,5.50
2023-07-25T04:12:09.375Z,6.30
2023-07-25T04:17:12.724Z,6.90
2023-07-25T04:22:16.079Z,5.90
2023-07-25T04:27:19.347Z,5.30
2023-07-25T04:32:22.699Z,5.40
2023-07-25T04:37:25.982Z,5.10
2023-07-25T04:42:29.366Z,6.50
2023-07-25T04:47:32.723Z,5.80
2023-07-25T04:52:36.192Z,5.50
2023-07-25T04:57:39.546Z,5.20
2023-07-25T05:02:42.927Z,5.80
2023-07-25T05:07:46.517Z,4.90
2023-07-25T05:12:49.893Z,4.90
2023-07-25T05:17:53.184Z,6.40
2023-07-25T05:22:56.501Z,4.30
2023-07-25T05:27:59.812Z,6.60
2023-07-25T05:33:04.525Z,6.00
2023-07-25T05:38:09.572Z,6.10
2023-07-25T05:43:17.034Z,5.10
2023-07-25T05:48:20.382Z,5.60
2023-07-25T05:53:23.775Z,5.40
2023-07-25T05:58:28.415Z,5.10
2023-07-25T06:03:35.092Z,9.00
2023-07-25T06:08:38.376Z,5.50
2023-07-25T06:13:41.671Z,5.10
2023-07-25T06:18:45.014Z,4.80
2023-07-25T06:23:48.602Z,4.90
2023-07-25T06:28:54.475Z,6.50
2023-07-25T06:33:57.968Z,5.00
2023-07-25T06:39:01.328Z,5.00
2023-07-25T06:44:06.413Z,4.80
2023-07-25T06:49:09.720Z,6.40
2023-07-25T06:54:13.004Z,5.00
2023-07-25T06:59:16.294Z,4.80
2023-07-25T07:04:19.600Z,6.70
2023-07-25T07:09:22.844Z,6.00
2023-07-25T07:14:26.233Z,6.40
2023-07-25T07:19:32.454Z,6.80
2023-07-25T07:24:36.128Z,5.40
2023-07-25T07:29:39.551Z,6.50
2023-07-25T07:34:42.792Z,5.00
2023-07-25T07:39:46.173Z,5.20
2023-07-25T07:44:49.653Z,5.60
2023-07-25T07:49:53.125Z,4.90
2023-07-25T07:54:58.076Z,5.50
2023-07-25T08:00:01.352Z,5.00
2023-07-25T08:05:05.296Z,5.60
2023-07-25T08:10:08.950Z,5.10
2023-07-25T08:15:13.148Z,5.30
2023-07-25T08:20:16.890Z,4.20
2023-07-25T08:25:22.089Z,6.00
2023-07-25T08:30:25.854Z,4.80
2023-07-25T08:35:31.804Z,6.10
2023-07-25T08:40:35.234Z,4.80
2023-07-25T08:45:39.478Z,4.80
2023-07-25T08:50:48.141Z,4.40
2023-07-25T08:55:53.228Z,4.70
2023-07-25T09:00:57.770Z,4.90
2023-07-25T09:06:01.964Z,6.10
2023-07-25T09:11:06.166Z,5.80
2023-07-25T09:16:09.631Z,4.60
2023-07-25T09:21:14.733Z,4.60
2023-07-25T09:26:18.199Z,5.70
2023-07-25T09:31:23.512Z,5.20
2023-07-25T09:36:30.724Z,4.80
2023-07-25T09:41:36.784Z,6.00
2023-07-25T09:46:40.359Z,6.90
2023-07-25T09:52:02.570Z,5.30
2023-07-25T09:57:06.906Z,4.80
2023-07-25T10:02:11.668Z,4.40
2023-07-25T10:07:15.648Z,5.00
2023-07-25T10:12:19.308Z,4.50
2023-07-25T10:17:24.459Z,5.30
2023-07-25T10:22:36.271Z,4.90
2023-07-25T10:27:42.734Z,4.60
2023-07-25T10:32:48.187Z,5.60
2023-07-25T10:37:53.276Z,4.80
2023-07-25T10:43:07.460Z,5.50
2023-07-25T10:48:37.132Z,5.20
2023-07-25T10:53:41.081Z,4.90
2023-07-25T10:59:06.474Z,6.50
2023-07-25T11:04:31.165Z,5.40
2023-07-25T11:09:41.423Z,4.70
2023-07-25T11:14:46.586Z,6.80
2023-07-25T11:19:49.906Z,5.60
2023-07-25T11:24:54.689Z,4.90
2023-07-25T11:30:19.960Z,4.60
2023-07-25T11:35:25.900Z,4.80
2023-07-25T11:40:29.546Z,6.20
2023-07-25T11:45:34.143Z,6.10
2023-07-25T11:50:39.664Z,5.80
2023-07-25T11:56:01.840Z,4.90
2023-07-25T12:01:09.998Z,6.00
2023-07-25T12:06:13.614Z,6.60
2023-07-25T12:11:17.143Z,5.80
2023-07-25T12:16:33.091Z,5.70
2023-07-25T12:21:38.676Z,6.10
2023-07-25T12:26:52.438Z,5.70
2023-07-25T12:31:56.547Z,5.90
2023-07-25T12:37:02.199Z,5.00
2023-07-25T12:42:05.984Z,6.40
2023-07-25T12:47:10.532Z,5.90
2023-07-25T12:52:13.964Z,5.60
2023-07-25T12:57:18.102Z,5.40
2023-07-25T13:02:21.644Z,5.10
2023-07-25T13:07:25.293Z,4.80
2023-07-25T13:12:28.784Z,5.10
2023-07-25T13:17:32.887Z,5.20
2023-07-25T13:22:37.042Z,4.60
2023-07-25T13:27:40.558Z,5.10
2023-07-25T13:32:44.613Z,3.80
2023-07-25T13:37:49.157Z,4.60
2023-07-25T13:42:52.602Z,4.20
2023-07-25T13:47:56.130Z,4.50
2023-07-25T13:52:59.597Z,6.10
2023-07-25T14:03:25.113Z,4.00
2023-07-25T14:08:28.579Z,5.50
2023-07-25T14:13:32.900Z,5.20
2023-07-25T14:18:36.456Z,5.50
2023-07-25T14:23:39.960Z,6.00
2023-07-25T14:28:43.606Z,5.90
2023-07-25T14:33:47.025Z,5.90
2023-07-25T14:38:50.677Z,5.40
2023-07-25T14:43:54.091Z,5.80
2023-07-25T14:48:57.754Z,5.50
2023-07-25T14:54:03.299Z,5.90
2023-07-25T14:59:06.810Z,5.20
2023-07-25T15:04:11.016Z,6.00
2023-07-25T15:09:14.518Z,5.60
2023-07-25T15:14:18.042Z,5.30
2023-07-25T15:19:21.532Z,5.90
2023-07-25T15:24:26.084Z,6.10
2023-07-25T15:29:29.519Z,5.70
2023-07-25T15:34:37.499Z,5.10
2023-07-25T15:39:41.758Z,6.50
2023-07-25T15:44:46.321Z,5.90
2023-07-25T15:49:49.740Z,5.10
2023-07-25T15:54:53.197Z,4.90
2023-07-25T15:59:56.720Z,4.40
2023-07-25T16:05:00.231Z,4.50
2023-07-25T16:10:06.744Z,3.60
2023-07-25T16:15:10.744Z,5.10
2023-07-25T16:20:14.444Z,4.50
2023-07-25T16:25:17.940Z,4.40
2023-07-25T16:30:21.452Z,5.90
2023-07-25T16:35:25.085Z,5.10
2023-07-25T16:40:28.544Z,6.60
2023-07-25T16:45:32.048Z,5.40
2023-07-25T16:50:35.821Z,6.40
2023-07-25T16:55:39.283Z,5.00
2023-07-25T17:00:42.774Z,6.20
2023-07-25T17:05:46.319Z,5.30
2023-07-25T17:10:50.028Z,6.30
2023-07-25T17:15:53.557Z,4.40
2023-07-25T17:20:57.933Z,4.00
2023-07-25T17:26:04.160Z,4.00
2023-07-25T17:31:07.860Z,4.10
2023-07-25T17:36:11.363Z,4.70
2023-07-25T17:41:15.188Z,4.80
2023-07-25T17:46:20.424Z,3.90
2023-07-25T17:51:25.896Z,4.00
2023-07-25T17:56:31.463Z,5.30
2023-07-25T18:01:35.829Z,3.50
2023-07-25T18:06:39.689Z,4.20
2023-07-25T18:11:43.335Z,2.90
2023-07-25T18:16:46.935Z,4.30
2023-07-25T18:21:51.560Z,3.60
2023-07-25T18:26:55.315Z,4.20
2023-07-25T18:32:00.910Z,4.60
2023-07-25T18:37:04.487Z,4.90
2023-07-25T18:42:07.994Z,5.80
2023-07-25T18:47:18.251Z,6.50
2023-07-25T18:52:28.329Z,4.10
2023-07-25T18:57:31.840Z,4.00
2023-07-25T19:02:35.378Z,4.70
2023-07-25T19:07:38.885Z,5.90
2023-07-25T19:12:42.442Z,4.40
2023-07-25T19:17:46.084Z,6.10
2023-07-25T19:22:49.731Z,4.50
2023-07-25T19:27:53.357Z,5.90
2023-07-25T19:32:57.096Z,5.50
2023-07-25T19:38:03.229Z,7.20
2023-07-25T19:43:06.820Z,4.90
2023-07-25T19:48:13.085Z,5.40
2023-07-25T19:53:17.323Z,5.10
2023-07-25T19:58:22.101Z,4.80
2023-07-25T20:03:25.881Z,4.20
2023-07-25T20:08:30.070Z,5.20
2023-07-25T20:13:39.960Z,4.00
2023-07-25T20:18:43.756Z,5.10
2023-07-25T20:23:47.221Z,5.00
2023-07-25T20:28:50.889Z,3.80
2023-07-25T20:33:54.519Z,5.70
2023-07-25T20:38:58.328Z,5.20
2023-07-25T20:44:02.452Z,6.30
2023-07-25T20:49:05.990Z,4.90
2023-07-25T20:54:09.528Z,4.60
2023-07-25T20:59:15.302Z,4.00
2023-07-25T21:04:19.690Z,3.60
2023-07-25T21:09:26.299Z,5.80
2023-07-25T21:14:29.945Z,3.80
2023-07-25T21:19:33.332Z,5.40
2023-07-25T21:24:37.900Z,4.80
2023-07-25T21:29:42.112Z,5.00
2023-07-25T21:34:46.295Z,4.30
2023-07-25T21:39:49.685Z,4.30
2023-07-25T21:44:53.445Z,4.80
2023-07-25T21:49:57.172Z,4.90
2023-07-25T21:55:00.581Z,4.80
2023-07-25T22:00:07.287Z,5.60
2023-07-25T22:05:10.830Z,5.40
2023-07-25T22:10:14.252Z,4.80
2023-07-25T22:15:17.828Z,5.90
2023-07-25T22:20:21.363Z,5.30
2023-07-25T22:25:24.865Z,6.50
2023-07-25T22:30:28.573Z,5.80
2023-07-25T22:35:32.314Z,5.50
2023-07-25T22:40:35.745Z,8.30
2023-07-25T22:45:40.341Z,8.50
2023-07-25T22:50:44.343Z,6.10
2023-07-25T22:55:47.833Z,7.90
2023-07-25T23:00:52.342Z,8.90
2023-07-25T23:06:00.681Z,9.60
2023-07-25T23:11:04.180Z,10.30
2023-07-25T23:16:08.868Z,8.10
2023-07-25T23:21:12.492Z,7.70
2023-07-25T23:26:16.033Z,8.10
2023-07-25T23:31:19.646Z,8.70
2023-07-25T23:36:23.372Z,8.10
2023-07-25T23:41:27.026Z,6.70
2023-07-25T23:46:31.691Z,6.70
2023-07-25T23:51:35.766Z,6.50
2023-07-25T23:56:42.036Z,6.60
